createdAt,value
2023-02-27T00:00:19.996Z,102807.59
2023-02-27T00:02:51.926Z,102816.19
2023-02-27T00:05:22.411Z,102788.34
2023-02-27T00:07:50.113Z,102823.41
2023-02-27T00:10:18.527Z,102800.03
2023-02-27T00:12:46.173Z,102820.13
2023-02-27T00:15:15.068Z,102827.03
2023-02-27T00:17:43.099Z,102816.28
2023-02-27T00:20:16.157Z,102807.34
2023-02-27T00:22:44.969Z,102809.78
2023-02-27T00:25:13.623Z,102819.19
2023-02-27T00:27:41.557Z,102809.16
2023-02-27T00:30:11.682Z,102823.09
2023-02-27T00:32:39.447Z,102814.72
2023-02-27T00:35:09.165Z,102818.00
2023-02-27T00:37:38.764Z,102821.59
2023-02-27T00:40:07.688Z,102830.69
2023-02-27T00:42:35.743Z,102826.66
2023-02-27T00:45:03.945Z,102845.56
2023-02-27T00:47:31.571Z,102828.28
2023-02-27T00:49:59.186Z,102841.66
2023-02-27T00:52:27.460Z,102834.63
2023-02-27T00:54:56.411Z,102839.28
2023-02-27T00:57:24.371Z,102826.59
2023-02-27T00:59:51.996Z,102853.06
2023-02-27T01:02:19.931Z,102823.09
2023-02-27T01:04:47.517Z,102821.31
2023-02-27T01:07:15.228Z,102821.31
2023-02-27T01:09:42.874Z,102832.06
2023-02-27T01:12:11.886Z,102824.06
2023-02-27T01:14:39.490Z,102841.34
2023-02-27T01:17:07.104Z,102838.31
2023-02-27T01:19:34.699Z,102803.03
2023-02-27T01:22:02.371Z,102838.34
2023-02-27T01:24:30.014Z,102808.25
2023-02-27T01:26:57.623Z,102810.78
2023-02-27T01:29:26.963Z,102823.88
2023-02-27T01:31:54.644Z,102821.91
2023-02-27T01:34:22.304Z,102812.94
2023-02-27T01:36:49.952Z,102813.53
2023-02-27T01:39:17.613Z,102817.84
2023-02-27T01:41:45.423Z,102792.00
2023-02-27T01:44:14.999Z,102813.22
2023-02-27T01:46:44.257Z,102812.34
2023-02-27T01:49:16.637Z,102818.84
2023-02-27T01:51:48.721Z,102815.63
2023-02-27T01:54:19.835Z,102820.38
2023-02-27T01:56:49.016Z,102796.75
2023-02-27T01:59:17.433Z,102797.50
2023-02-27T02:01:46.832Z,102807.03
2023-02-27T02:04:20.723Z,102807.59
2023-02-27T02:06:51.611Z,102808.38
2023-02-27T02:09:21.013Z,102826.72
2023-02-27T02:11:50.005Z,102811.06
2023-02-27T02:14:17.702Z,102822.25
2023-02-27T02:17:00.049Z,102821.69
2023-02-27T02:19:56.888Z,102824.03
2023-02-27T02:22:59.900Z,102812.16
2023-02-27T02:26:05.906Z,102811.75
2023-02-27T02:29:11.163Z,102831.78
2023-02-27T02:32:07.081Z,102824.50
2023-02-27T02:35:07.255Z,102826.72
2023-02-27T02:38:17.328Z,102842.22
2023-02-27T02:40:53.452Z,102818.75
2023-02-27T02:43:27.705Z,102832.88
2023-02-27T02:46:03.591Z,102826.25
2023-02-27T02:48:37.498Z,102812.91
2023-02-27T02:51:12.934Z,102816.44
2023-02-27T02:53:48.573Z,102806.53
2023-02-27T02:56:23.612Z,102825.78
2023-02-27T02:59:00.590Z,102812.81
2023-02-27T03:01:34.477Z,102819.16
2023-02-27T03:04:08.179Z,102801.06
2023-02-27T03:06:39.756Z,102828.50
2023-02-27T03:09:13.106Z,102837.88
2023-02-27T03:11:46.855Z,102812.88
2023-02-27T03:14:20.181Z,102801.34
2023-02-27T03:16:51.206Z,102829.13
2023-02-27T03:19:22.164Z,102808.25
2023-02-27T03:21:54.484Z,102826.78
2023-02-27T03:24:26.813Z,102830.94
2023-02-27T03:27:03.267Z,102831.97
2023-02-27T03:29:39.700Z,102853.03
2023-02-27T03:32:14.265Z,102845.94
2023-02-27T03:34:43.488Z,102841.66
2023-02-27T03:37:22.371Z,102821.53
2023-02-27T03:39:52.669Z,102820.78
2023-02-27T03:42:30.179Z,102816.16
2023-02-27T03:45:05.889Z,102831.09
2023-02-27T03:47:35.283Z,102845.50
2023-02-27T03:50:02.984Z,102841.72
2023-02-27T03:52:32.436Z,102841.34
2023-02-27T03:55:05.184Z,102838.75
2023-02-27T03:57:37.674Z,102839.91
2023-02-27T04:00:07.559Z,102837.75
2023-02-27T04:02:38.046Z,102853.28
2023-02-27T04:05:06.094Z,102857.94
2023-02-27T04:07:38.699Z,102864.53
2023-02-27T04:10:17.658Z,102832.44
2023-02-27T04:13:12.888Z,102852.44
2023-02-27T04:16:00.664Z,102878.78
2023-02-27T04:18:44.968Z,102862.06
2023-02-27T04:21:18.134Z,102862.97
2023-02-27T04:23:56.264Z,102869.63
2023-02-27T04:26:31.523Z,102855.72
2023-02-27T04:29:07.016Z,102869.28
2023-02-27T04:31:46.723Z,102872.97
2023-02-27T04:34:21.754Z,102863.50
2023-02-27T04:36:58.058Z,102885.41
2023-02-27T04:39:28.829Z,102896.38
2023-02-27T04:42:02.301Z,102881.22
2023-02-27T04:44:36.126Z,102873.09
2023-02-27T04:47:08.308Z,102872.44
2023-02-27T04:49:38.671Z,102885.63
2023-02-27T04:52:11.404Z,102880.44
2023-02-27T04:54:43.250Z,102897.50
2023-02-27T04:57:16.569Z,102903.06
2023-02-27T04:59:48.608Z,102871.31
2023-02-27T05:02:24.654Z,102879.56
2023-02-27T05:04:56.743Z,102869.69
2023-02-27T05:07:27.634Z,102885.41
2023-02-27T05:09:59.897Z,102863.59
2023-02-27T05:12:34.761Z,102876.28
2023-02-27T05:15:10.019Z,102878.13
2023-02-27T05:17:43.520Z,102899.88
2023-02-27T05:20:12.725Z,102905.44
2023-02-27T05:22:48.497Z,102893.88
2023-02-27T05:25:24.766Z,102892.91
2023-02-27T05:27:57.819Z,102875.38
2023-02-27T05:30:33.120Z,102869.97
2023-02-27T05:33:06.965Z,102899.59
2023-02-27T05:35:39.273Z,102887.09
2023-02-27T05:38:12.711Z,102874.81
2023-02-27T05:40:45.399Z,102882.53
2023-02-27T05:43:18.970Z,102851.72
2023-02-27T05:45:51.224Z,102882.25
2023-02-27T05:48:23.962Z,102903.69
2023-02-27T05:50:53.892Z,102903.59
2023-02-27T05:53:23.160Z,102893.09
2023-02-27T05:55:53.644Z,102910.13
2023-02-27T05:58:25.839Z,102905.63
2023-02-27T06:00:58.501Z,102904.25
2023-02-27T06:03:26.645Z,102895.41
2023-02-27T06:05:55.810Z,102906.53
2023-02-27T06:08:24.932Z,102916.03
2023-02-27T06:10:52.688Z,102891.66
2023-02-27T06:13:20.312Z,102881.09
2023-02-27T06:15:47.928Z,102884.44
2023-02-27T06:18:18.004Z,102912.47
2023-02-27T06:20:46.510Z,102920.00
2023-02-27T06:23:14.384Z,102938.91
2023-02-27T06:25:42.442Z,102926.69
2023-02-27T06:28:10.943Z,102931.50
2023-02-27T06:30:39.282Z,102928.25
2023-02-27T06:33:07.008Z,102929.13
2023-02-27T06:35:36.109Z,102911.38
2023-02-27T06:38:04.976Z,102914.69
2023-02-27T06:40:32.563Z,102945.63
2023-02-27T06:43:00.168Z,102946.75
2023-02-27T06:45:27.769Z,102951.13
2023-02-27T06:47:55.350Z,102927.84
2023-02-27T06:50:22.979Z,102916.22
2023-02-27T06:52:52.027Z,102928.63
2023-02-27T06:55:20.937Z,102945.19
2023-02-27T06:57:48.928Z,102952.75
2023-02-27T07:00:17.997Z,102940.91
2023-02-27T07:02:45.618Z,102942.72
2023-02-27T07:05:13.214Z,102944.72
2023-02-27T07:07:41.036Z,102963.09
2023-02-27T07:10:12.711Z,102953.94
2023-02-27T07:12:40.587Z,102932.41
2023-02-27T07:15:09.083Z,102911.69
2023-02-27T07:17:36.791Z,102905.09
2023-02-27T07:20:05.395Z,102896.69
2023-02-27T07:22:33.041Z,102915.59
2023-02-27T07:25:00.662Z,102913.19
2023-02-27T07:27:29.712Z,102898.00
2023-02-27T07:29:57.333Z,102898.81
2023-02-27T07:32:24.919Z,102891.00
2023-02-27T07:34:52.489Z,102900.41
2023-02-27T07:37:20.651Z,102896.56
2023-02-27T07:39:48.226Z,102901.69
2023-02-27T07:42:16.629Z,102898.56
2023-02-27T07:44:45.607Z,102902.53
2023-02-27T07:47:13.224Z,102900.78
2023-02-27T07:49:40.812Z,102889.09
2023-02-27T07:52:08.404Z,102886.16
2023-02-27T07:54:37.670Z,102866.25
2023-02-27T07:57:05.546Z,102895.84
2023-02-27T07:59:33.568Z,102879.16
2023-02-27T08:02:02.541Z,102879.56
2023-02-27T08:04:30.222Z,102868.16
2023-02-27T08:06:57.932Z,102866.97
2023-02-27T08:09:25.553Z,102858.38
2023-02-27T08:11:53.143Z,102855.09
2023-02-27T08:14:20.772Z,102846.41
2023-02-27T08:16:48.411Z,102847.09
2023-02-27T08:19:17.364Z,102847.00
2023-02-27T08:21:44.952Z,102846.91
2023-02-27T08:24:12.556Z,102848.09
2023-02-27T08:26:40.124Z,102841.38
2023-02-27T08:29:07.737Z,102835.53
2023-02-27T08:31:35.517Z,102834.28
2023-02-27T08:34:10.111Z,102838.50
2023-02-27T08:36:40.395Z,102842.41
2023-02-27T08:39:08.974Z,102838.72
2023-02-27T08:41:36.748Z,102840.72
2023-02-27T08:44:04.893Z,102830.69
2023-02-27T08:46:32.515Z,102830.00
2023-02-27T08:49:00.162Z,102837.38
2023-02-27T08:51:28.135Z,102840.66
2023-02-27T08:53:59.024Z,102843.69
2023-02-27T08:56:27.316Z,102835.41
2023-02-27T08:58:55.572Z,102839.19
2023-02-27T09:01:23.819Z,102843.88
2023-02-27T09:03:51.511Z,102836.09
2023-02-27T09:06:19.112Z,102861.16
2023-02-27T09:08:46.720Z,102843.19
2023-02-27T09:11:15.663Z,102857.31
2023-02-27T09:13:43.259Z,102874.16
2023-02-27T09:16:11.257Z,102879.91
2023-02-27T09:18:38.893Z,102880.34
2023-02-27T09:21:06.952Z,102898.22
2023-02-27T09:23:34.591Z,102922.81
2023-02-27T09:26:02.170Z,102936.28
2023-02-27T09:28:31.114Z,102930.63
2023-02-27T09:31:01.865Z,102952.41
2023-02-27T09:33:29.711Z,102945.34
2023-02-27T09:35:57.358Z,102954.06
2023-02-27T09:38:24.975Z,102950.34
2023-02-27T09:40:55.044Z,102943.13
2023-02-27T09:43:28.036Z,102960.69
2023-02-27T09:45:58.729Z,102953.44
2023-02-27T09:48:32.203Z,102961.50
2023-02-27T09:51:00.832Z,102976.66
2023-02-27T09:53:31.406Z,102954.66
2023-02-27T09:56:07.192Z,102975.47
2023-02-27T09:58:46.314Z,102940.56
2023-02-27T10:01:24.132Z,102959.13
2023-02-27T10:04:19.667Z,102944.50
2023-02-27T10:06:52.036Z,102955.53
2023-02-27T10:09:32.127Z,102953.72
2023-02-27T10:12:12.491Z,102938.84
2023-02-27T10:14:44.399Z,102953.97
2023-02-27T10:17:19.413Z,102931.06
2023-02-27T10:19:49.286Z,102948.28
2023-02-27T10:22:24.515Z,102947.22
2023-02-27T10:24:58.820Z,102947.09
2023-02-27T10:27:26.801Z,102958.56
2023-02-27T10:30:01.041Z,102937.59
2023-02-27T10:32:33.799Z,102953.06
2023-02-27T10:35:09.879Z,102961.06
2023-02-27T10:37:40.990Z,102956.47
2023-02-27T10:40:16.079Z,102962.75
2023-02-27T10:42:45.103Z,102958.75
2023-02-27T10:45:15.696Z,102955.44
2023-02-27T10:47:45.249Z,102952.38
2023-02-27T10:50:28.305Z,102968.78
2023-02-27T10:52:58.265Z,102971.59
2023-02-27T10:55:28.675Z,102951.41
2023-02-27T10:57:58.642Z,102957.34
2023-02-27T11:00:39.410Z,102964.59
2023-02-27T11:03:19.580Z,102979.59
2023-02-27T11:05:56.625Z,102961.06
2023-02-27T11:08:26.298Z,102975.66
2023-02-27T11:10:56.965Z,102988.56
2023-02-27T11:13:26.982Z,102965.63
2023-02-27T11:16:10.256Z,102961.88
2023-02-27T11:18:41.018Z,102964.97
2023-02-27T11:21:22.654Z,102970.56
2023-02-27T11:23:53.174Z,102966.69
2023-02-27T11:26:24.427Z,102969.50
2023-02-27T11:29:07.197Z,102948.91
2023-02-27T11:31:36.389Z,102944.72
2023-02-27T11:34:08.239Z,102949.91
2023-02-27T11:36:40.600Z,102965.03
2023-02-27T11:39:08.535Z,102974.00
2023-02-27T11:41:37.312Z,102964.19
2023-02-27T11:44:05.969Z,102958.50
2023-02-27T11:46:47.588Z,102955.06
2023-02-27T11:49:31.150Z,102953.19
2023-02-27T11:52:08.343Z,102954.66
2023-02-27T11:54:40.637Z,102957.47
2023-02-27T11:57:15.923Z,102943.00
2023-02-27T11:59:49.032Z,102945.78
2023-02-27T12:02:23.387Z,102929.38
2023-02-27T12:04:56.189Z,102943.31
2023-02-27T12:07:28.913Z,102934.94
2023-02-27T12:10:04.555Z,102941.13
2023-02-27T12:12:37.824Z,102937.16
2023-02-27T12:15:16.151Z,102939.59
2023-02-27T12:17:47.546Z,102935.63
2023-02-27T12:20:29.440Z,102921.78
2023-02-27T12:22:57.168Z,102909.59
2023-02-27T12:25:36.025Z,102918.28
2023-02-27T12:28:10.191Z,102922.31
2023-02-27T12:30:43.554Z,102937.25
2023-02-27T12:33:18.577Z,102928.78
2023-02-27T12:35:55.587Z,102935.84
2023-02-27T12:38:24.574Z,102933.69
2023-02-27T12:41:06.039Z,102928.25
2023-02-27T12:43:45.642Z,102932.16
2023-02-27T12:46:33.043Z,102924.41
2023-02-27T12:49:15.698Z,102934.91
2023-02-27T12:51:56.120Z,102931.03
2023-02-27T12:54:34.743Z,102939.25
2023-02-27T12:57:16.359Z,102934.56
2023-02-27T13:00:06.376Z,102925.22
2023-02-27T13:02:46.942Z,102921.00
2023-02-27T13:05:25.554Z,102922.94
2023-02-27T13:08:01.007Z,102921.34
2023-02-27T13:10:35.897Z,102920.13
2023-02-27T13:13:09.749Z,102918.34
2023-02-27T13:15:43.321Z,102915.00
2023-02-27T13:18:29.095Z,102921.41
2023-02-27T13:21:03.286Z,102918.44
2023-02-27T13:23:37.607Z,102918.00
2023-02-27T13:26:11.519Z,102919.03
2023-02-27T13:28:40.294Z,102909.69
2023-02-27T13:31:11.015Z,102918.53
2023-02-27T13:33:47.687Z,102900.53
2023-02-27T13:36:21.874Z,102903.00
2023-02-27T13:38:55.199Z,102920.78
2023-02-27T13:41:39.516Z,102909.81
2023-02-27T13:44:40.291Z,102904.72
2023-02-27T13:47:40.344Z,102903.44
2023-02-27T13:50:41.180Z,102911.03
2023-02-27T13:53:18.654Z,102893.69
2023-02-27T13:55:47.796Z,102910.59
2023-02-27T13:58:19.183Z,102911.16
2023-02-27T14:00:57.785Z,102919.50
2023-02-27T14:03:28.131Z,102918.16
2023-02-27T14:05:59.394Z,102908.47
2023-02-27T14:08:28.923Z,102901.75
2023-02-27T14:11:02.720Z,102910.84
2023-02-27T14:14:06.410Z,102923.56
2023-02-27T14:16:59.764Z,102925.69
2023-02-27T14:19:49.181Z,102924.41
2023-02-27T14:22:37.660Z,102924.19
2023-02-27T14:25:19.627Z,102913.53
2023-02-27T14:27:54.659Z,102921.72
2023-02-27T14:30:31.091Z,102920.81
2023-02-27T14:33:02.460Z,102925.22
2023-02-27T14:35:31.115Z,102919.75
2023-02-27T14:38:04.807Z,102925.66
2023-02-27T14:40:39.066Z,102915.66
2023-02-27T14:43:15.942Z,102929.09
2023-02-27T14:45:43.584Z,102919.53
2023-02-27T14:48:11.794Z,102918.78
2023-02-27T14:50:41.672Z,102924.28
2023-02-27T14:53:23.787Z,102930.16
2023-02-27T14:55:55.568Z,102936.81
2023-02-27T14:58:25.350Z,102919.56
2023-02-27T15:01:03.154Z,102921.41
2023-02-27T15:03:36.521Z,102928.06
2023-02-27T15:06:13.624Z,102938.34
2023-02-27T15:08:43.467Z,102926.88
2023-02-27T15:11:15.614Z,102934.72
2023-02-27T15:13:45.729Z,102919.72
2023-02-27T15:16:31.940Z,102911.94
2023-02-27T15:19:01.934Z,102919.50
2023-02-27T15:21:34.651Z,102920.84
2023-02-27T15:24:04.100Z,102924.81
2023-02-27T15:26:36.160Z,102932.88
2023-02-27T15:29:06.279Z,102925.47
2023-02-27T15:31:34.294Z,102939.09
2023-02-27T15:34:03.740Z,102943.69
2023-02-27T15:36:34.179Z,102936.91
2023-02-27T15:39:16.387Z,102939.28
2023-02-27T15:41:46.667Z,102938.03
2023-02-27T15:44:17.018Z,102948.38
2023-02-27T15:46:46.272Z,102944.41
2023-02-27T15:49:18.772Z,102961.59
2023-02-27T15:51:49.254Z,102951.63
2023-02-27T15:54:16.917Z,102959.69
2023-02-27T15:56:45.260Z,102949.47
2023-02-27T15:59:18.789Z,102947.34
2023-02-27T16:01:47.027Z,102950.69
2023-02-27T16:04:23.809Z,102964.00
2023-02-27T16:06:59.144Z,102957.75
2023-02-27T16:09:31.202Z,102960.19
2023-02-27T16:12:13.297Z,102953.94
2023-02-27T16:14:45.855Z,102959.31
2023-02-27T16:17:29.321Z,102945.00
2023-02-27T16:20:00.746Z,102959.09
2023-02-27T16:22:30.380Z,102962.50
2023-02-27T16:25:09.518Z,102978.59
2023-02-27T16:27:37.281Z,102978.25
2023-02-27T16:30:12.733Z,102982.59
2023-02-27T16:32:43.979Z,102968.13
2023-02-27T16:35:19.224Z,102980.81
2023-02-27T16:37:47.946Z,102992.63
2023-02-27T16:40:18.092Z,102986.16
2023-02-27T16:42:47.111Z,102991.75
2023-02-27T16:45:18.293Z,102998.03
2023-02-27T16:47:48.816Z,102980.22
2023-02-27T16:50:21.809Z,102993.38
2023-02-27T16:52:49.488Z,102978.78
2023-02-27T16:55:17.327Z,102982.00
2023-02-27T16:57:45.023Z,102979.97
2023-02-27T17:00:17.013Z,102986.38
2023-02-27T17:02:44.719Z,102973.16
2023-02-27T17:05:12.344Z,102968.97
2023-02-27T17:07:39.967Z,102978.13
2023-02-27T17:10:08.022Z,102972.31
2023-02-27T17:12:36.676Z,102988.34
2023-02-27T17:15:04.516Z,102984.63
2023-02-27T17:17:33.428Z,102993.47
2023-02-27T17:20:01.856Z,102989.03
2023-02-27T17:22:29.439Z,102988.22
2023-02-27T17:24:57.030Z,102981.81
2023-02-27T17:27:24.648Z,102977.41
2023-02-27T17:29:52.438Z,102996.25
2023-02-27T17:32:20.114Z,102976.22
2023-02-27T17:34:49.174Z,102962.72
2023-02-27T17:37:16.774Z,102969.28
2023-02-27T17:39:44.350Z,102971.81
2023-02-27T17:42:16.419Z,102994.69
2023-02-27T17:44:45.131Z,102991.75
2023-02-27T17:47:12.967Z,102992.97
2023-02-27T17:49:40.611Z,102994.31
2023-02-27T17:52:10.005Z,102965.13
2023-02-27T17:54:38.015Z,103000.88
2023-02-27T17:57:06.690Z,103004.47
2023-02-27T17:59:34.698Z,103009.78
2023-02-27T18:02:02.288Z,103009.78
2023-02-27T18:04:29.973Z,103007.75
2023-02-27T18:06:57.788Z,102991.66
2023-02-27T18:09:26.793Z,102999.97
2023-02-27T18:11:54.426Z,102994.47
2023-02-27T18:14:22.278Z,102993.44
2023-02-27T18:16:50.098Z,103011.00
2023-02-27T18:19:18.286Z,103002.56
2023-02-27T18:21:47.037Z,103009.06
2023-02-27T18:24:16.934Z,103007.31
2023-02-27T18:26:45.928Z,103023.03
2023-02-27T18:29:16.116Z,103016.72
2023-02-27T18:31:45.494Z,103022.34
2023-02-27T18:34:13.912Z,103019.56
2023-02-27T18:36:41.590Z,103019.78
2023-02-27T18:39:09.221Z,103021.22
2023-02-27T18:41:37.080Z,103036.81
2023-02-27T18:44:07.612Z,103030.41
2023-02-27T18:46:36.110Z,103027.91
2023-02-27T18:49:03.995Z,103035.06
2023-02-27T18:51:31.720Z,103039.16
2023-02-27T18:54:00.693Z,103053.38
2023-02-27T18:56:32.766Z,103053.13
2023-02-27T18:59:05.026Z,103051.25
2023-02-27T19:01:36.379Z,103057.63
2023-02-27T19:04:05.885Z,103044.75
2023-02-27T19:06:34.785Z,103057.78
2023-02-27T19:09:02.443Z,103052.44
2023-02-27T19:11:33.124Z,103058.31
2023-02-27T19:14:01.535Z,103054.78
2023-02-27T19:16:29.589Z,103049.13
2023-02-27T19:18:59.828Z,103042.13
2023-02-27T19:21:28.367Z,103050.22
2023-02-27T19:23:56.297Z,103033.22
2023-02-27T19:26:25.206Z,103036.94
2023-02-27T19:28:53.750Z,103055.38
2023-02-27T19:31:23.373Z,103051.31
2023-02-27T19:33:50.986Z,103043.06
2023-02-27T19:36:21.683Z,103048.53
2023-02-27T19:38:49.652Z,103040.97
2023-02-27T19:41:18.378Z,103044.38
2023-02-27T19:43:47.229Z,103060.63
2023-02-27T19:46:17.355Z,103055.88
2023-02-27T19:48:45.836Z,103054.63
2023-02-27T19:51:15.410Z,103049.13
2023-02-27T19:53:48.255Z,103057.22
2023-02-27T19:56:18.665Z,103060.34
2023-02-27T19:58:47.693Z,103057.34
2023-02-27T20:01:21.502Z,103071.69
2023-02-27T20:03:49.197Z,103072.41
2023-02-27T20:06:18.625Z,103065.16
2023-02-27T20:08:47.604Z,103071.66
2023-02-27T20:11:17.325Z,103069.16
2023-02-27T20:13:44.992Z,103060.72
2023-02-27T20:16:14.782Z,103041.88
2023-02-27T20:18:43.602Z,103066.34
2023-02-27T20:21:13.758Z,103054.63
2023-02-27T20:23:43.263Z,103057.88
2023-02-27T20:26:18.044Z,103057.22
2023-02-27T20:28:46.416Z,103075.41
2023-02-27T20:31:15.727Z,103086.81
2023-02-27T20:33:43.678Z,103094.06
2023-02-27T20:36:12.749Z,103093.81
2023-02-27T20:38:41.143Z,103083.81
2023-02-27T20:41:10.385Z,103078.84
2023-02-27T20:43:39.833Z,103087.50
2023-02-27T20:46:10.277Z,103074.09
2023-02-27T20:48:38.310Z,103075.41
2023-02-27T20:51:08.023Z,103070.94
2023-02-27T20:53:36.995Z,103065.66
2023-02-27T20:56:05.931Z,103060.84
2023-02-27T20:58:34.272Z,103078.47
2023-02-27T21:01:04.279Z,103064.94
2023-02-27T21:03:38.414Z,103078.09
2023-02-27T21:06:07.393Z,103082.63
2023-02-27T21:08:36.455Z,103085.81
2023-02-27T21:11:08.410Z,103092.47
2023-02-27T21:13:36.971Z,103089.41
2023-02-27T21:16:07.565Z,103071.22
2023-02-27T21:18:35.223Z,103074.00
2023-02-27T21:21:04.443Z,103081.53
2023-02-27T21:23:32.179Z,103067.13
2023-02-27T21:25:59.800Z,103087.19
2023-02-27T21:28:27.576Z,103079.47
2023-02-27T21:30:55.164Z,103058.94
2023-02-27T21:33:24.289Z,103061.28
2023-02-27T21:35:51.911Z,103070.84
2023-02-27T21:38:19.498Z,103062.00
2023-02-27T21:40:47.083Z,103075.84
2023-02-27T21:43:14.654Z,103068.41
2023-02-27T21:45:47.457Z,103074.03
2023-02-27T21:48:16.097Z,103087.34
2023-02-27T21:50:45.094Z,103085.75
2023-02-27T21:53:12.667Z,103087.66
2023-02-27T21:55:40.277Z,103080.53
2023-02-27T21:58:10.427Z,103082.50
2023-02-27T22:00:38.067Z,103076.16
2023-02-27T22:03:06.203Z,103073.28
2023-02-27T22:05:33.797Z,103071.94
2023-02-27T22:08:02.777Z,103072.06
2023-02-27T22:10:30.412Z,103076.59
2023-02-27T22:12:58.015Z,103064.25
2023-02-27T22:15:25.654Z,103064.13
2023-02-27T22:17:54.674Z,103064.78
2023-02-27T22:20:22.263Z,103080.53
2023-02-27T22:22:49.912Z,103089.31
2023-02-27T22:25:19.064Z,103077.78
2023-02-27T22:27:46.699Z,103068.50
2023-02-27T22:30:14.971Z,103062.38
2023-02-27T22:32:42.574Z,103063.09
2023-02-27T22:35:10.478Z,103079.53
2023-02-27T22:37:38.072Z,103070.28
2023-02-27T22:40:06.475Z,103076.03
2023-02-27T22:42:35.427Z,103080.13
2023-02-27T22:45:03.027Z,103076.78
2023-02-27T22:47:30.648Z,103079.25
2023-02-27T22:49:58.516Z,103078.09
2023-02-27T22:52:26.174Z,103085.25
2023-02-27T22:54:53.925Z,103076.78
2023-02-27T22:57:22.828Z,103072.63
2023-02-27T22:59:52.089Z,103081.94
2023-02-27T23:02:19.897Z,103088.88
2023-02-27T23:04:47.511Z,103075.78
2023-02-27T23:07:15.096Z,103082.00
2023-02-27T23:09:43.802Z,103085.56
2023-02-27T23:12:11.448Z,103090.03
2023-02-27T23:14:39.241Z,103085.34
2023-02-27T23:17:08.229Z,103072.25
2023-02-27T23:19:36.466Z,103083.44
2023-02-27T23:22:04.075Z,103076.16
2023-02-27T23:24:31.706Z,103067.59
2023-02-27T23:27:00.160Z,103080.44
2023-02-27T23:29:27.756Z,103069.03
2023-02-27T23:31:55.454Z,103082.91
2023-02-27T23:34:24.516Z,103084.28
2023-02-27T23:36:52.120Z,103087.19
2023-02-27T23:39:20.561Z,103076.97
2023-02-27T23:41:48.226Z,103086.13
2023-02-27T23:44:15.908Z,103090.50
2023-02-27T23:46:43.635Z,103101.41
2023-02-27T23:49:12.205Z,103084.47
2023-02-27T23:51:41.208Z,103100.28
2023-02-27T23:54:08.830Z,103085.94
2023-02-27T23:56:36.453Z,103094.13
2023-02-27T23:59:06.913Z,103098.75
